Terminal Aerodrome Forecast
Issued by NWS Sioux Falls, SD

Home | Current Version | Previous Version | Graphics & Text | Print | Product List | Glossary On
Versions: 1 2 3 4 5 6 7 8 9 10 11 12 13 14 15 16 17 18 19 20 21
000
FTUS43 KFSD 240539
TAFHON
TAF
KHON 240539Z 2406/2506 27004KT 5SM -RA OVC004
     FM241000 30004KT 6SM SHRA OVC003
     FM241300 16004KT 4SM SHRA OVC003
     FM241500 18006KT 4SM SHRA BKN008
     FM242300 33010KT 4SM -SHRA OVC008
     FM250000 33010KT P6SM OVC008=

USA.gov is the U.S. government's official web portal to all federal, state and local government web resources and services.